x

Buoy F01 - West Penobscot Bay (44033) Wave Buoy

10:04 - Sun 22nd Jan 2017 All times are EST. -5 hours from GMT.

  • Sig Wave height 2.0ft
  • Peak Period 3s
  • Wind
    11mph, 13mph gusts
  • Sea Temp 40°f
  • Aire Temp 34°f
  • Sea Pressure 1018.2mb
  • Buoy F01 - West Penobscot Bay
  • Buoy F01 - West Penobscot Bay

More Historic Weather Station data

Upgrade to MSW Pro to gain access to the past 30 days of data for over 8000 Wavebouys and Weather Stations around the globe.

Join Pro

Comparision Forecast

View Surf forecast
   
dom 01/22 10:04 2ft 3s 11 13 mph 1018.2mb 40f 34f
9:04 2ft 3s 18 20 mph 1017mb 40f 35f
8:04 1.6ft 3s 18 20 mph 1016.6mb 40f 35f
7:04 1.6ft 3s 18 22 mph 1015.5mb 40f 36f
6:04 2ft 3s 18 22 mph 1014.6mb 39f 37f
5:04 1.3ft 3s 18 25 mph 1014mb 39f 38f
4:04 1.3ft 3s 16 20 mph 1013.8mb 39f 38f
3:04 1.6ft 3s 16 20 mph 1013mb 39f 38f
2:04 1.6ft 8s 11 16 mph 1012.2mb 39f 38f
1:04 1.6ft 11s 11 13 mph 1011.5mb 39f 37f
12:04 1.3ft 5s 11
mph
1011.4mb 40f 37f
11:04 2.5ft 11s 9 11 mph 1011.8mb 40f 36f
10:04 1.3ft 5s 13 16 mph 1011.6mb 40f 36f
9:04 1.3ft 5s 11 13 mph 1011.1mb 40f 36f
8:04 1.6ft 3s 7 9 mph 1010.8mb 39f 36f
7:04 2ft 3s 16 20 mph 1009.4mb 39f 36f
6:04 1.6ft 3s 18 20 mph 1008.1mb 39f 37f
5:04 1.6ft 3s 16 20 mph 1008.1mb 39f 37f
4:04 1.6ft 5s 16 18 mph 1007.6mb 38f 37f
3:04 2ft 8s 13 16 mph 1006.9mb 38f 38f
2:04 1.3ft 5s 4 7 mph 1007.2mb 38f 38f
1:04 1.3ft 5s 4 7 mph 1007.3mb 38f 38f
12:04 2ft 11s 2
mph
1006.3mb 38f 38f
sáb 01/21 11:04 1.6ft 5s 2
mph
1007mb 38f 38f
10:04 2.5ft 11s 2
mph
1006.8mb 38f 38f
9:04 2.5ft 11s 4
mph
1006.8mb 39f 39f
8:04 2ft 11s 2
mph
1006.9mb 38f 39f
7:04 2.5ft 11s 4
mph
1006.7mb 38f 39f
6:04 2.5ft 11s 2 4 mph 1006.4mb 38f 38f
5:04 2.5ft 11s 2
mph
1006.1mb 38f 38f
4:04 1.3ft 5s 2 4 mph 1005.9mb 38f 38f
3:04 1.6ft 8s 2 4 mph 1005.6mb 38f 38f
2:04 1.3ft 5s  -  2 mph 1005.9mb 38f 38f
1:04 1.3ft 4s 2 4 mph 1006.1mb 38f 38f
12:04 2ft 11s 2
mph
1006.9mb 38f 37f
11:04 2.5ft 11s 2
mph
1008.4mb 37f 37f
10:04 2ft 11s 2 4 mph 1009.5mb 38f 36f
9:04 2ft 11s 2 4 mph 1009.5mb 38f 36f
8:04 2.5ft 11s 2 4 mph 1009.5mb 38f 37f
7:04 2ft 11s 2
mph
1009.4mb 37f 38f
6:04 2ft 11s 4
mph
1010.2mb 38f 38f
5:04 2.5ft 11s 7 9 mph 1010.3mb 38f 39f
4:04 1.3ft 3s 9 11 mph 1010.4mb 38f 39f
3:04 1ft 2s 11 13 mph 1011.2mb 38f 39f
2:04 1.3ft 11s 7 9 mph 1012.1mb 38f 39f
1:04 1.3ft 8s 4
mph
1012.2mb 38f 38f
12:04 2ft 11s  -  2 mph 1012.4mb 38f 37f
vie 01/20 11:04 1.6ft 11s 4
mph
1013.2mb 38f 37f
10:04 1.6ft 11s 7 9 mph 1014mb 38f 37f
9:04 1.6ft 11s 9 11 mph 1013.8mb 38f 37f
8:04 1.6ft 11s 7 9 mph 1013.9mb 38f 38f
7:04 2ft 11s 4 7 mph 1013.8mb 38f 38f
6:04 1.6ft 11s 4
mph
1014.1mb 38f 38f
5:04 1.3ft 11s 2 4 mph 1014mb 38f 38f
4:04 1.6ft 11s 2 4 mph 1014.1mb 38f 38f
3:04 1.6ft 11s 2 4 mph 1014.2mb 38f 38f
2:04 2ft 8s 4 7 mph 1014.3mb 38f 38f
1:04 2.5ft 11s 7 9 mph 1014.6mb 38f 38f
12:04 2ft 11s 7
mph
1015.1mb 38f 37f
11:04 2.5ft 8s 9 11 mph 1015.8mb 38f 37f
10:04 2.5ft 11s 9 13 mph 1016.3mb 38f 37f
9:04 2.5ft 11s 2 4 mph 1016.3mb 39f 37f
8:04 3ft 11s 11 13 mph 1016.1mb 39f 36f
7:04 2.5ft 11s 11 13 mph 1015.9mb 39f 35f
6:04  -   -  11 13 mph 1015.2mb 38f 34f
5:04 2.5ft 11s 9 11 mph 1014.3mb 38f 37f
4:04 3ft 11s 13 18 mph 1013.9mb 38f 36f
3:04 1.6ft 3s 16 18 mph 1014.3mb 38f 37f
2:04  -   -  18 22 mph 1014.2mb 38f 36f
1:04 3.5ft 11s 18 20 mph 1015.2mb 38f 37f
12:04 3.5ft 11s 16 20 mph 1015.5mb 38f 37f
jue 01/19 11:04 3ft 11s 11 16 mph 1015.1mb 38f 38f
10:04 4ft 8s 16 20 mph 1014.9mb 39f 39f
9:04 3.5ft 11s 13 18 mph 1014.7mb 39f 38f
8:04 3ft 8s 7 9 mph 1014.4mb 39f 37f
7:04 2.5ft 8s 7
mph
1014mb 38f 37f
6:04 2.5ft 8s 7 9 mph 1013.5mb 38f 38f
5:04 2.5ft 8s 7 9 mph 1012.6mb 38f 39f
4:04 2.5ft 8s 9
mph
1012.4mb 38f 39f
3:04 2.5ft 8s 11 13 mph 1012mb 38f 39f
2:04 2.5ft 8s 7
mph
1012.1mb 38f 38f
1:04 3ft 8s 7
mph
1012.7mb 39f 37f
12:04 2.5ft 8s 9 13 mph 1012.8mb 39f 35f
11:04 2.5ft 8s 4
mph
1014mb 39f 34f
10:04 2.5ft 8s 2 4 mph 1014.9mb 39f 33f
9:04 3.5ft 8s 7
mph
1015.1mb 39f 32f
8:04 3.5ft 8s 9 11 mph 1015.1mb 39f 32f
7:04 2.5ft 8s 7
mph
1015mb 39f 32f
6:04 2.5ft 8s 7 9 mph 1014.9mb 39f 32f
5:04 2.5ft 6s 7 9 mph 1014.7mb 39f 31f